sensor_id;sensor_type;location;lat;lon;timestamp;pressure;altitude;pressure_sealevel;temperature;humidity
596;BME280;19946;49.306;11.350;2023-03-23T00:00:30;95843.22;;;8.12;100.00
596;BME280;19946;49.306;11.350;2023-03-23T00:03:32;95792.53;;;7.91;100.00
596;BME280;19946;49.306;11.350;2023-03-23T00:06:32;95849.41;;;8.30;100.00
596;BME280;19946;49.306;11.350;2023-03-23T00:09:34;95805.84;;;7.96;100.00
596;BME280;19946;49.306;11.350;2023-03-23T00:12:40;95846.94;;;8.19;100.00
596;BME280;19946;49.306;11.350;2023-03-23T00:15:42;95845.06;;;8.21;100.00
596;BME280;19946;49.306;11.350;2023-03-23T00:18:51;95792.31;;;7.74;100.00
596;BME280;19946;49.306;11.350;2023-03-23T00:21:52;95840.22;;;8.06;100.00
596;BME280;19946;49.306;11.350;2023-03-23T00:24:54;95821.19;;;7.98;100.00
596;BME280;19946;49.306;11.350;2023-03-23T00:27:54;95820.88;;;7.91;100.00
596;BME280;19946;49.306;11.350;2023-03-23T00:30:59;95843.72;;;7.96;100.00
596;BME280;19946;49.306;11.350;2023-03-23T00:34:03;95833.84;;;7.80;100.00
596;BME280;19946;49.306;11.350;2023-03-23T00:37:04;95837.66;;;7.76;100.00
596;BME280;19946;49.306;11.350;2023-03-23T00:40:05;95858.44;;;7.84;100.00
596;BME280;19946;49.306;11.350;2023-03-23T00:43:11;95844.59;;;7.85;100.00
596;BME280;19946;49.306;11.350;2023-03-23T00:46:13;95835.31;;;8.03;100.00
596;BME280;19946;49.306;11.350;2023-03-23T00:49:18;95812.66;;;7.97;100.00
596;BME280;19946;49.306;11.350;2023-03-23T00:52:18;95819.16;;;8.01;100.00
596;BME280;19946;49.306;11.350;2023-03-23T00:55:19;95825.00;;;8.03;100.00
596;BME280;19946;49.306;11.350;2023-03-23T00:58:19;95804.19;;;7.86;100.00
596;BME280;19946;49.306;11.350;2023-03-23T01:01:20;95809.00;;;8.00;100.00
596;BME280;19946;49.306;11.350;2023-03-23T01:04:20;95800.34;;;8.11;100.00
596;BME280;19946;49.306;11.350;2023-03-23T01:07:21;95818.84;;;8.25;100.00
596;BME280;19946;49.306;11.350;2023-03-23T01:10:24;95799.09;;;8.05;100.00
596;BME280;19946;49.306;11.350;2023-03-23T01:13:24;95793.56;;;8.10;100.00
596;BME280;19946;49.306;11.350;2023-03-23T01:16:25;95779.75;;;7.90;100.00
596;BME280;19946;49.306;11.350;2023-03-23T01:19:26;95825.50;;;8.28;100.00
596;BME280;19946;49.306;11.350;2023-03-23T01:22:26;95826.13;;;8.41;100.00
596;BME280;19946;49.306;11.350;2023-03-23T01:25:28;95777.91;;;8.32;100.00
596;BME280;19946;49.306;11.350;2023-03-23T01:28:29;95807.28;;;8.50;100.00
596;BME280;19946;49.306;11.350;2023-03-23T01:31:30;95799.91;;;8.36;100.00
596;BME280;19946;49.306;11.350;2023-03-23T01:34:30;95767.59;;;8.01;100.00
596;BME280;19946;49.306;11.350;2023-03-23T01:37:31;95787.31;;;8.12;100.00
596;BME280;19946;49.306;11.350;2023-03-23T01:40:32;95785.03;;;8.19;100.00
596;BME280;19946;49.306;11.350;2023-03-23T01:43:33;95770.88;;;8.13;100.00
596;BME280;19946;49.306;11.350;2023-03-23T01:46:35;95780.28;;;8.24;100.00
596;BME280;19946;49.306;11.350;2023-03-23T01:49:38;95780.78;;;8.38;100.00
596;BME280;19946;49.306;11.350;2023-03-23T01:52:40;95784.63;;;8.92;100.00
596;BME280;19946;49.306;11.350;2023-03-23T01:55:43;95771.59;;;8.94;100.00
596;BME280;19946;49.306;11.350;2023-03-23T01:58:48;95754.47;;;8.83;100.00
596;BME280;19946;49.306;11.350;2023-03-23T02:01:49;95807.34;;;9.18;100.00
596;BME280;19946;49.306;11.350;2023-03-23T02:04:57;95798.22;;;9.04;100.00
596;BME280;19946;49.306;11.350;2023-03-23T02:08:02;95782.06;;;8.83;100.00
596;BME280;19946;49.306;11.350;2023-03-23T02:11:15;95802.59;;;9.03;100.00
596;BME280;19946;49.306;11.350;2023-03-23T02:14:16;95791.13;;;9.35;100.00
596;BME280;19946;49.306;11.350;2023-03-23T02:17:43;95801.72;;;9.41;100.00
596;BME280;19946;49.306;11.350;2023-03-23T02:24:29;95798.03;;;9.53;100.00
596;BME280;19946;49.306;11.350;2023-03-23T02:27:45;95786.03;;;9.72;100.00
596;BME280;19946;49.306;11.350;2023-03-23T02:31:18;95792.16;;;9.71;100.00
596;BME280;19946;49.306;11.350;2023-03-23T02:34:30;95786.31;;;9.69;100.00
596;BME280;19946;49.306;11.350;2023-03-23T02:37:39;95728.41;;;9.42;100.00
596;BME280;19946;49.306;11.350;2023-03-23T02:40:45;95774.34;;;9.68;100.00
596;BME280;19946;49.306;11.350;2023-03-23T02:43:48;95755.06;;;9.43;100.00
596;BME280;19946;49.306;11.350;2023-03-23T02:46:50;95749.41;;;9.39;100.00
596;BME280;19946;49.306;11.350;2023-03-23T02:49:54;95721.31;;;9.07;100.00
596;BME280;19946;49.306;11.350;2023-03-23T02:52:57;95743.59;;;9.18;100.00
596;BME280;19946;49.306;11.350;2023-03-23T02:55:59;95755.38;;;9.21;100.00
596;BME280;19946;49.306;11.350;2023-03-23T02:59:03;95700.38;;;8.91;100.00
596;BME280;19946;49.306;11.350;2023-03-23T03:02:07;95741.41;;;9.13;100.00
596;BME280;19946;49.306;11.350;2023-03-23T03:05:36;95771.28;;;9.35;100.00
596;BME280;19946;49.306;11.350;2023-03-23T03:11:49;95764.47;;;9.34;100.00
596;BME280;19946;49.306;11.350;2023-03-23T03:18:28;95732.03;;;9.12;100.00
596;BME280;19946;49.306;11.350;2023-03-23T03:21:34;95769.78;;;9.33;100.00
596;BME280;19946;49.306;11.350;2023-03-23T03:24:37;95755.38;;;9.30;100.00
596;BME280;19946;49.306;11.350;2023-03-23T03:27:39;95731.31;;;9.20;100.00
596;BME280;19946;49.306;11.350;2023-03-23T03:30:53;95739.06;;;9.20;100.00
596;BME280;19946;49.306;11.350;2023-03-23T03:33:55;95731.50;;;9.19;100.00
596;BME280;19946;49.306;11.350;2023-03-23T03:36:57;95751.16;;;9.20;100.00
596;BME280;19946;49.306;11.350;2023-03-23T03:39:59;95720.50;;;8.97;100.00
596;BME280;19946;49.306;11.350;2023-03-23T03:43:00;95755.13;;;9.24;100.00
596;BME280;19946;49.306;11.350;2023-03-23T03:46:01;95699.16;;;8.95;100.00
596;BME280;19946;49.306;11.350;2023-03-23T03:49:07;95717.47;;;9.11;100.00
596;BME280;19946;49.306;11.350;2023-03-23T03:52:11;95735.66;;;9.20;100.00
596;BME280;19946;49.306;11.350;2023-03-23T03:55:15;95690.19;;;8.90;100.00
596;BME280;19946;49.306;11.350;2023-03-23T03:58:20;95706.91;;;9.05;100.00
596;BME280;19946;49.306;11.350;2023-03-23T04:01:32;95720.34;;;9.08;100.00
596;BME280;19946;49.306;11.350;2023-03-23T04:04:33;95734.88;;;9.19;100.00
596;BME280;19946;49.306;11.350;2023-03-23T04:07:35;95704.19;;;9.06;100.00
596;BME280;19946;49.306;11.350;2023-03-23T04:10:38;95728.34;;;9.25;100.00
596;BME280;19946;49.306;11.350;2023-03-23T04:13:39;95707.00;;;9.13;100.00
596;BME280;19946;49.306;11.350;2023-03-23T04:16:50;95705.91;;;9.15;100.00
596;BME280;19946;49.306;11.350;2023-03-23T04:19:57;95698.59;;;9.11;100.00
596;BME280;19946;49.306;11.350;2023-03-23T04:22:58;95728.47;;;9.23;100.00
596;BME280;19946;49.306;11.350;2023-03-23T04:26:01;95740.00;;;9.38;100.00
596;BME280;19946;49.306;11.350;2023-03-23T04:29:08;95715.56;;;9.23;100.00
596;BME280;19946;49.306;11.350;2023-03-23T04:32:09;95719.22;;;9.21;100.00
596;BME280;19946;49.306;11.350;2023-03-23T04:35:14;95695.63;;;9.06;100.00
596;BME280;19946;49.306;11.350;2023-03-23T04:38:27;95717.19;;;9.24;100.00
596;BME280;19946;49.306;11.350;2023-03-23T04:41:34;95723.38;;;9.50;100.00
596;BME280;19946;49.306;11.350;2023-03-23T04:45:12;95733.56;;;9.62;100.00
596;BME280;19946;49.306;11.350;2023-03-23T04:48:15;95730.25;;;9.69;100.00
596;BME280;19946;49.306;11.350;2023-03-23T04:51:30;95712.47;;;9.57;100.00
596;BME280;19946;49.306;11.350;2023-03-23T04:54:36;95695.59;;;9.52;100.00
596;BME280;19946;49.306;11.350;2023-03-23T04:57:37;95732.03;;;9.69;100.00
596;BME280;19946;49.306;11.350;2023-03-23T05:01:02;95717.88;;;9.73;100.00
596;BME280;19946;49.306;11.350;2023-03-23T05:04:02;95737.25;;;9.86;100.00
596;BME280;19946;49.306;11.350;2023-03-23T05:07:04;95709.56;;;9.69;100.00
596;BME280;19946;49.306;11.350;2023-03-23T05:10:09;95737.19;;;9.96;100.00
596;BME280;19946;49.306;11.350;2023-03-23T05:13:10;95744.72;;;9.89;100.00
596;BME280;19946;49.306;11.350;2023-03-23T05:16:11;95742.28;;;9.88;100.00
596;BME280;19946;49.306;11.350;2023-03-23T05:19:14;95712.78;;;9.81;100.00
596;BME280;19946;49.306;11.350;2023-03-23T05:22:15;95741.97;;;10.01;100.00
596;BME280;19946;49.306;11.350;2023-03-23T05:25:21;95734.06;;;10.02;100.00
596;BME280;19946;49.306;11.350;2023-03-23T05:28:31;95718.25;;;9.78;100.00
596;BME280;19946;49.306;11.350;2023-03-23T05:31:52;95705.25;;;9.60;100.00
596;BME280;19946;49.306;11.350;2023-03-23T05:34:53;95724.00;;;9.72;100.00
596;BME280;19946;49.306;11.350;2023-03-23T05:37:53;95724.53;;;9.66;100.00
596;BME280;19946;49.306;11.350;2023-03-23T05:40:58;95705.66;;;9.56;100.00
596;BME280;19946;49.306;11.350;2023-03-23T05:44:05;95688.97;;;9.50;100.00
596;BME280;19946;49.306;11.350;2023-03-23T05:47:20;95696.56;;;9.61;100.00
596;BME280;19946;49.306;11.350;2023-03-23T05:50:26;95702.53;;;9.62;100.00
596;BME280;19946;49.306;11.350;2023-03-23T05:53:28;95732.94;;;9.77;100.00
596;BME280;19946;49.306;11.350;2023-03-23T05:56:31;95702.81;;;9.59;100.00
596;BME280;19946;49.306;11.350;2023-03-23T05:59:52;95706.63;;;9.55;100.00
596;BME280;19946;49.306;11.350;2023-03-23T06:02:57;95720.78;;;9.60;100.00
596;BME280;19946;49.306;11.350;2023-03-23T06:06:10;95724.03;;;9.52;100.00
596;BME280;19946;49.306;11.350;2023-03-23T06:09:22;95755.56;;;9.66;100.00
596;BME280;19946;49.306;11.350;2023-03-23T06:12:39;95749.06;;;9.62;100.00
596;BME280;19946;49.306;11.350;2023-03-23T06:16:03;95747.03;;;9.56;100.00
596;BME280;19946;49.306;11.350;2023-03-23T06:19:25;95752.97;;;9.66;100.00
596;BME280;19946;49.306;11.350;2023-03-23T06:22:41;95755.44;;;9.67;100.00
596;BME280;19946;49.306;11.350;2023-03-23T06:25:46;95750.41;;;9.66;100.00
596;BME280;19946;49.306;11.350;2023-03-23T06:28:47;95744.97;;;9.59;100.00
596;BME280;19946;49.306;11.350;2023-03-23T06:31:50;95755.53;;;9.75;100.00
596;BME280;19946;49.306;11.350;2023-03-23T06:34:53;95739.75;;;9.78;100.00
596;BME280;19946;49.306;11.350;2023-03-23T06:38:16;95735.63;;;9.85;100.00
596;BME280;19946;49.306;11.350;2023-03-23T06:41:27;95703.72;;;9.67;100.00
596;BME280;19946;49.306;11.350;2023-03-23T06:44:27;95696.38;;;9.63;100.00
596;BME280;19946;49.306;11.350;2023-03-23T06:47:28;95741.56;;;9.96;100.00
596;BME280;19946;49.306;11.350;2023-03-23T06:50:30;95742.69;;;9.93;100.00
596;BME280;19946;49.306;11.350;2023-03-23T06:53:31;95731.84;;;9.80;100.00
596;BME280;19946;49.306;11.350;2023-03-23T06:56:32;95716.06;;;9.83;100.00
596;BME280;19946;49.306;11.350;2023-03-23T06:59:33;95740.09;;;9.93;100.00
596;BME280;19946;49.306;11.350;2023-03-23T07:02:35;95731.38;;;9.94;100.00
596;BME280;19946;49.306;11.350;2023-03-23T07:05:36;95720.63;;;9.89;100.00
596;BME280;19946;49.306;11.350;2023-03-23T07:08:37;95727.63;;;10.06;100.00
596;BME280;19946;49.306;11.350;2023-03-23T07:11:40;95721.94;;;10.03;100.00
596;BME280;19946;49.306;11.350;2023-03-23T07:14:49;95708.75;;;9.96;100.00
596;BME280;19946;49.306;11.350;2023-03-23T07:17:50;95722.00;;;10.20;100.00
596;BME280;19946;49.306;11.350;2023-03-23T07:20:58;95719.13;;;10.23;100.00
596;BME280;19946;49.306;11.350;2023-03-23T07:24:03;95674.28;;;10.05;100.00
596;BME280;19946;49.306;11.350;2023-03-23T07:27:18;95743.44;;;10.58;100.00
596;BME280;19946;49.306;11.350;2023-03-23T07:30:20;95730.84;;;10.63;100.00
596;BME280;19946;49.306;11.350;2023-03-23T07:33:20;95697.94;;;10.55;100.00
596;BME280;19946;49.306;11.350;2023-03-23T07:36:22;95729.00;;;10.73;100.00
596;BME280;19946;49.306;11.350;2023-03-23T07:39:22;95732.19;;;10.67;100.00
596;BME280;19946;49.306;11.350;2023-03-23T07:42:26;95741.81;;;10.75;100.00
596;BME280;19946;49.306;11.350;2023-03-23T07:45:32;95743.06;;;10.88;100.00
596;BME280;19946;49.306;11.350;2023-03-23T07:48:33;95736.34;;;10.78;100.00
596;BME280;19946;49.306;11.350;2023-03-23T07:51:33;95710.28;;;10.79;100.00
596;BME280;19946;49.306;11.350;2023-03-23T07:54:34;95744.47;;;11.01;100.00
596;BME280;19946;49.306;11.350;2023-03-23T07:57:44;95716.31;;;11.06;100.00
596;BME280;19946;49.306;11.350;2023-03-23T08:00:46;95733.56;;;11.15;100.00
596;BME280;19946;49.306;11.350;2023-03-23T08:03:50;95760.28;;;11.33;100.00
596;BME280;19946;49.306;11.350;2023-03-23T08:07:08;95770.44;;;11.52;100.00
596;BME280;19946;49.306;11.350;2023-03-23T08:10:41;95733.47;;;11.50;100.00
596;BME280;19946;49.306;11.350;2023-03-23T08:14:00;95770.38;;;11.88;100.00
596;BME280;19946;49.306;11.350;2023-03-23T08:17:17;95766.72;;;12.06;100.00
596;BME280;19946;49.306;11.350;2023-03-23T08:20:43;95775.56;;;12.22;100.00
596;BME280;19946;49.306;11.350;2023-03-23T08:23:58;95773.44;;;12.25;100.00
596;BME280;19946;49.306;11.350;2023-03-23T08:27:20;95756.59;;;12.21;100.00
596;BME280;19946;49.306;11.350;2023-03-23T08:30:41;95784.94;;;12.23;100.00
596;BME280;19946;49.306;11.350;2023-03-23T08:33:52;95771.78;;;12.08;100.00
596;BME280;19946;49.306;11.350;2023-03-23T08:37:18;95799.50;;;12.07;100.00
596;BME280;19946;49.306;11.350;2023-03-23T08:40:37;95797.59;;;12.18;100.00
596;BME280;19946;49.306;11.350;2023-03-23T08:43:58;95776.38;;;11.88;100.00
596;BME280;19946;49.306;11.350;2023-03-23T08:47:04;95808.56;;;12.03;100.00
596;BME280;19946;49.306;11.350;2023-03-23T08:50:28;95805.47;;;12.00;100.00
596;BME280;19946;49.306;11.350;2023-03-23T08:53:43;95775.19;;;11.83;100.00
596;BME280;19946;49.306;11.350;2023-03-23T08:57:18;95811.25;;;11.94;100.00
596;BME280;19946;49.306;11.350;2023-03-23T09:00:37;95800.44;;;11.98;100.00
596;BME280;19946;49.306;11.350;2023-03-23T09:03:42;95798.25;;;11.86;100.00
596;BME280;19946;49.306;11.350;2023-03-23T09:07:05;95798.19;;;11.78;100.00
596;BME280;19946;49.306;11.350;2023-03-23T09:10:07;95796.47;;;11.68;100.00
596;BME280;19946;49.306;11.350;2023-03-23T09:13:07;95816.56;;;11.84;100.00
596;BME280;19946;49.306;11.350;2023-03-23T09:16:08;95799.44;;;11.74;100.00
596;BME280;19946;49.306;11.350;2023-03-23T09:19:08;95814.63;;;11.86;100.00
596;BME280;19946;49.306;11.350;2023-03-23T09:22:09;95807.97;;;11.84;100.00
596;BME280;19946;49.306;11.350;2023-03-23T09:25:12;95781.81;;;11.77;100.00
596;BME280;19946;49.306;11.350;2023-03-23T09:28:13;95780.59;;;11.89;100.00
596;BME280;19946;49.306;11.350;2023-03-23T09:31:13;95784.09;;;12.06;100.00
596;BME280;19946;49.306;11.350;2023-03-23T09:34:14;95799.84;;;12.13;100.00
596;BME280;19946;49.306;11.350;2023-03-23T09:37:17;95815.50;;;12.29;100.00
596;BME280;19946;49.306;11.350;2023-03-23T09:40:23;95806.22;;;12.26;100.00
596;BME280;19946;49.306;11.350;2023-03-23T09:43:43;95788.81;;;12.11;100.00
596;BME280;19946;49.306;11.350;2023-03-23T09:46:59;95803.94;;;12.23;100.00
596;BME280;19946;49.306;11.350;2023-03-23T09:50:10;95793.66;;;12.05;100.00
596;BME280;19946;49.306;11.350;2023-03-23T09:53:23;95798.16;;;12.03;100.00
596;BME280;19946;49.306;11.350;2023-03-23T09:56:26;95783.22;;;11.97;100.00
596;BME280;19946;49.306;11.350;2023-03-23T09:59:35;95823.75;;;12.24;100.00
596;BME280;19946;49.306;11.350;2023-03-23T10:02:49;95825.09;;;12.36;100.00
596;BME280;19946;49.306;11.350;2023-03-23T10:05:53;95795.97;;;12.17;100.00
596;BME280;19946;49.306;11.350;2023-03-23T10:08:57;95817.59;;;12.33;100.00
596;BME280;19946;49.306;11.350;2023-03-23T10:15:38;95782.22;;;12.24;100.00
596;BME280;19946;49.306;11.350;2023-03-23T10:19:18;95831.09;;;12.87;100.00
596;BME280;19946;49.306;11.350;2023-03-23T10:22:29;95827.88;;;12.85;100.00
596;BME280;19946;49.306;11.350;2023-03-23T10:25:35;95835.69;;;12.93;100.00
596;BME280;19946;49.306;11.350;2023-03-23T10:28:41;95839.59;;;13.05;100.00
596;BME280;19946;49.306;11.350;2023-03-23T10:31:46;95800.78;;;13.04;100.00
596;BME280;19946;49.306;11.350;2023-03-23T10:35:05;95780.59;;;12.73;100.00
596;BME280;19946;49.306;11.350;2023-03-23T10:38:15;95844.06;;;13.29;100.00
596;BME280;19946;49.306;11.350;2023-03-23T10:41:19;95813.03;;;13.28;100.00
596;BME280;19946;49.306;11.350;2023-03-23T10:44:22;95849.75;;;13.57;100.00
596;BME280;19946;49.306;11.350;2023-03-23T10:47:25;95811.72;;;13.40;100.00
596;BME280;19946;49.306;11.350;2023-03-23T10:50:30;95837.72;;;13.80;100.00
596;BME280;19946;49.306;11.350;2023-03-23T10:53:34;95816.91;;;13.72;100.00
596;BME280;19946;49.306;11.350;2023-03-23T10:56:38;95818.22;;;13.60;100.00
596;BME280;19946;49.306;11.350;2023-03-23T10:59:40;95818.88;;;13.38;100.00
596;BME280;19946;49.306;11.350;2023-03-23T11:02:43;95841.47;;;13.45;100.00
596;BME280;19946;49.306;11.350;2023-03-23T11:05:49;95808.78;;;13.27;100.00
596;BME280;19946;49.306;11.350;2023-03-23T11:08:56;95824.22;;;13.44;100.00
596;BME280;19946;49.306;11.350;2023-03-23T11:11:57;95809.44;;;13.29;100.00
596;BME280;19946;49.306;11.350;2023-03-23T11:15:15;95811.22;;;13.20;100.00
596;BME280;19946;49.306;11.350;2023-03-23T11:18:25;95849.41;;;13.44;100.00
596;BME280;19946;49.306;11.350;2023-03-23T11:21:27;95834.44;;;13.22;100.00
596;BME280;19946;49.306;11.350;2023-03-23T11:24:28;95848.13;;;13.56;100.00
596;BME280;19946;49.306;11.350;2023-03-23T11:27:29;95851.38;;;13.82;100.00
596;BME280;19946;49.306;11.350;2023-03-23T11:30:30;95851.63;;;14.20;100.00
596;BME280;19946;49.306;11.350;2023-03-23T11:33:52;95861.72;;;14.23;100.00
596;BME280;19946;49.306;11.350;2023-03-23T11:37:14;95862.59;;;13.91;100.00
596;BME280;19946;49.306;11.350;2023-03-23T11:40:21;95867.16;;;13.73;100.00
596;BME280;19946;49.306;11.350;2023-03-23T11:43:23;95865.34;;;13.65;100.00
596;BME280;19946;49.306;11.350;2023-03-23T11:46:33;95841.97;;;13.57;100.00
596;BME280;19946;49.306;11.350;2023-03-23T11:49:45;95852.03;;;13.36;100.00
596;BME280;19946;49.306;11.350;2023-03-23T11:52:54;95870.56;;;13.57;100.00
596;BME280;19946;49.306;11.350;2023-03-23T11:56:01;95878.69;;;13.54;100.00
596;BME280;19946;49.306;11.350;2023-03-23T11:59:11;95823.41;;;13.36;100.00
596;BME280;19946;49.306;11.350;2023-03-23T12:05:30;95837.88;;;13.46;100.00
596;BME280;19946;49.306;11.350;2023-03-23T12:08:47;95846.00;;;13.76;100.00
596;BME280;19946;49.306;11.350;2023-03-23T12:15:30;95864.13;;;14.41;100.00
596;BME280;19946;49.306;11.350;2023-03-23T12:22:16;95837.72;;;13.80;100.00
596;BME280;19946;49.306;11.350;2023-03-23T12:25:38;95853.28;;;13.97;100.00
596;BME280;19946;49.306;11.350;2023-03-23T12:35:48;95872.50;;;13.47;100.00
596;BME280;19946;49.306;11.350;2023-03-23T12:42:04;95852.00;;;14.01;100.00
596;BME280;19946;49.306;11.350;2023-03-23T12:45:21;95800.81;;;14.48;100.00
596;BME280;19946;49.306;11.350;2023-03-23T12:48:33;95848.09;;;14.99;100.00
596;BME280;19946;49.306;11.350;2023-03-23T12:51:51;95835.06;;;14.99;100.00
596;BME280;19946;49.306;11.350;2023-03-23T12:55:01;95834.53;;;14.17;100.00
596;BME280;19946;49.306;11.350;2023-03-23T12:58:08;95831.81;;;14.11;100.00
596;BME280;19946;49.306;11.350;2023-03-23T13:01:19;95806.38;;;14.21;100.00
596;BME280;19946;49.306;11.350;2023-03-23T13:04:27;95812.44;;;14.69;100.00
596;BME280;19946;49.306;11.350;2023-03-23T13:07:34;95847.94;;;14.61;100.00
596;BME280;19946;49.306;11.350;2023-03-23T13:10:58;95850.00;;;14.19;100.00
596;BME280;19946;49.306;11.350;2023-03-23T13:17:44;95841.75;;;13.99;100.00
596;BME280;19946;49.306;11.350;2023-03-23T13:20:58;95837.00;;;14.11;100.00
596;BME280;19946;49.306;11.350;2023-03-23T13:24:06;95816.53;;;14.00;100.00
596;BME280;19946;49.306;11.350;2023-03-23T13:27:09;95837.78;;;14.36;100.00
596;BME280;19946;49.306;11.350;2023-03-23T13:30:20;95846.88;;;14.48;100.00
596;BME280;19946;49.306;11.350;2023-03-23T13:33:21;95837.44;;;14.31;100.00
596;BME280;19946;49.306;11.350;2023-03-23T13:36:30;95804.84;;;13.87;100.00
596;BME280;19946;49.306;11.350;2023-03-23T13:39:35;95832.13;;;14.08;100.00
596;BME280;19946;49.306;11.350;2023-03-23T13:42:36;95835.09;;;14.05;100.00
596;BME280;19946;49.306;11.350;2023-03-23T13:45:46;95785.84;;;13.71;100.00
596;BME280;19946;49.306;11.350;2023-03-23T13:48:49;95797.38;;;13.93;100.00
596;BME280;19946;49.306;11.350;2023-03-23T13:51:56;95832.59;;;14.19;100.00
596;BME280;19946;49.306;11.350;2023-03-23T13:55:18;95826.03;;;14.32;100.00
596;BME280;19946;49.306;11.350;2023-03-23T13:58:25;95800.00;;;14.32;100.00
596;BME280;19946;49.306;11.350;2023-03-23T14:01:36;95796.50;;;14.16;100.00
596;BME280;19946;49.306;11.350;2023-03-23T14:04:37;95801.19;;;14.21;100.00
596;BME280;19946;49.306;11.350;2023-03-23T14:07:56;95774.41;;;14.04;100.00
596;BME280;19946;49.306;11.350;2023-03-23T14:10:59;95805.84;;;14.42;100.00
596;BME280;19946;49.306;11.350;2023-03-23T14:14:14;95797.66;;;14.53;100.00
596;BME280;19946;49.306;11.350;2023-03-23T14:17:18;95777.59;;;14.22;100.00
596;BME280;19946;49.306;11.350;2023-03-23T14:20:30;95787.75;;;13.93;100.00
596;BME280;19946;49.306;11.350;2023-03-23T14:23:33;95808.38;;;14.11;100.00
596;BME280;19946;49.306;11.350;2023-03-23T14:26:34;95771.69;;;13.65;100.00
596;BME280;19946;49.306;11.350;2023-03-23T14:29:36;95815.88;;;13.98;100.00
596;BME280;19946;49.306;11.350;2023-03-23T14:32:37;95799.63;;;13.96;100.00
596;BME280;19946;49.306;11.350;2023-03-23T14:35:40;95775.22;;;13.97;100.00
596;BME280;19946;49.306;11.350;2023-03-23T14:38:41;95792.22;;;14.23;100.00
596;BME280;19946;49.306;11.350;2023-03-23T14:41:42;95791.94;;;14.10;100.00
596;BME280;19946;49.306;11.350;2023-03-23T14:44:45;95812.25;;;14.23;100.00
596;BME280;19946;49.306;11.350;2023-03-23T14:47:53;95810.47;;;14.23;100.00
596;BME280;19946;49.306;11.350;2023-03-23T14:51:02;95768.22;;;13.97;100.00
596;BME280;19946;49.306;11.350;2023-03-23T14:54:07;95773.25;;;13.99;100.00
596;BME280;19946;49.306;11.350;2023-03-23T14:57:28;95760.03;;;14.16;100.00
596;BME280;19946;49.306;11.350;2023-03-23T15:00:33;95769.31;;;14.11;100.00
596;BME280;19946;49.306;11.350;2023-03-23T15:03:41;95796.94;;;14.20;100.00
596;BME280;19946;49.306;11.350;2023-03-23T15:06:48;95759.50;;;13.82;100.00
596;BME280;19946;49.306;11.350;2023-03-23T15:09:49;95768.72;;;13.93;100.00
596;BME280;19946;49.306;11.350;2023-03-23T15:12:50;95777.63;;;14.06;100.00
596;BME280;19946;49.306;11.350;2023-03-23T15:16:02;95798.00;;;14.03;100.00
596;BME280;19946;49.306;11.350;2023-03-23T15:19:12;95772.66;;;13.80;100.00
596;BME280;19946;49.306;11.350;2023-03-23T15:22:26;95795.06;;;13.98;100.00
596;BME280;19946;49.306;11.350;2023-03-23T15:25:30;95796.66;;;14.15;100.00
596;BME280;19946;49.306;11.350;2023-03-23T15:28:32;95741.72;;;13.85;100.00
596;BME280;19946;49.306;11.350;2023-03-23T15:31:34;95801.06;;;14.14;100.00
596;BME280;19946;49.306;11.350;2023-03-23T15:34:38;95803.53;;;14.00;100.00
596;BME280;19946;49.306;11.350;2023-03-23T15:37:44;95749.94;;;13.58;100.00
596;BME280;19946;49.306;11.350;2023-03-23T15:40:49;95792.00;;;13.78;100.00
596;BME280;19946;49.306;11.350;2023-03-23T15:44:10;95807.63;;;13.94;100.00
596;BME280;19946;49.306;11.350;2023-03-23T15:47:17;95785.69;;;13.72;100.00
596;BME280;19946;49.306;11.350;2023-03-23T15:53:36;95813.75;;;14.09;100.00
596;BME280;19946;49.306;11.350;2023-03-23T15:56:38;95785.03;;;13.78;100.00
596;BME280;19946;49.306;11.350;2023-03-23T15:59:38;95801.94;;;13.66;100.00
596;BME280;19946;49.306;11.350;2023-03-23T16:02:39;95783.41;;;13.69;100.00
596;BME280;19946;49.306;11.350;2023-03-23T16:05:39;95775.78;;;13.68;100.00
596;BME280;19946;49.306;11.350;2023-03-23T16:08:39;95798.88;;;13.71;100.00
596;BME280;19946;49.306;11.350;2023-03-23T16:11:40;95755.34;;;13.40;100.00
596;BME280;19946;49.306;11.350;2023-03-23T16:14:41;95773.53;;;13.48;100.00
596;BME280;19946;49.306;11.350;2023-03-23T16:17:42;95759.06;;;13.38;100.00
596;BME280;19946;49.306;11.350;2023-03-23T16:20:42;95755.97;;;13.42;100.00
596;BME280;19946;49.306;11.350;2023-03-23T16:23:43;95754.50;;;13.32;100.00
596;BME280;19946;49.306;11.350;2023-03-23T16:26:45;95758.09;;;13.23;100.00
596;BME280;19946;49.306;11.350;2023-03-23T16:29:45;95797.91;;;13.39;100.00
596;BME280;19946;49.306;11.350;2023-03-23T16:32:46;95780.81;;;13.21;100.00
596;BME280;19946;49.306;11.350;2023-03-23T16:35:46;95802.94;;;13.25;100.00
596;BME280;19946;49.306;11.350;2023-03-23T16:38:47;95748.97;;;12.86;100.00
596;BME280;19946;49.306;11.350;2023-03-23T16:41:47;95806.81;;;13.21;100.00
596;BME280;19946;49.306;11.350;2023-03-23T16:44:47;95779.00;;;13.05;100.00
596;BME280;19946;49.306;11.350;2023-03-23T16:47:49;95786.81;;;13.05;100.00
596;BME280;19946;49.306;11.350;2023-03-23T16:50:51;95808.88;;;13.09;100.00
596;BME280;19946;49.306;11.350;2023-03-23T16:53:51;95819.94;;;13.11;100.00
596;BME280;19946;49.306;11.350;2023-03-23T16:56:51;95828.91;;;13.08;100.00
596;BME280;19946;49.306;11.350;2023-03-23T16:59:52;95799.28;;;12.85;100.00
596;BME280;19946;49.306;11.350;2023-03-23T17:02:54;95762.19;;;12.51;100.00
596;BME280;19946;49.306;11.350;2023-03-23T17:05:58;95779.41;;;12.52;100.00
596;BME280;19946;49.306;11.350;2023-03-23T17:08:59;95826.84;;;12.70;100.00
596;BME280;19946;49.306;11.350;2023-03-23T17:12:00;95816.56;;;12.52;100.00
596;BME280;19946;49.306;11.350;2023-03-23T17:15:01;95784.03;;;12.32;100.00